sensor_id;sensor_type;location;lat;lon;timestamp;P1;durP1;ratioP1;P2;durP2;ratioP2
14272;SDS011;7220;49.450;11.052;2023-04-25T05:24:21;7.78;;;5.65;;
14272;SDS011;7220;49.450;11.052;2023-04-25T05:28:21;6.85;;;5.63;;
14272;SDS011;7220;49.450;11.052;2023-04-25T05:32:22;6.88;;;5.53;;
14272;SDS011;7220;49.450;11.052;2023-04-25T05:36:22;7.20;;;5.95;;
14272;SDS011;7220;49.450;11.052;2023-04-25T05:40:23;7.13;;;5.07;;
14272;SDS011;7220;49.450;11.052;2023-04-25T05:44:23;5.88;;;5.32;;
14272;SDS011;7220;49.450;11.052;2023-04-25T05:48:23;5.97;;;5.38;;
14272;SDS011;7220;49.450;11.052;2023-04-25T05:52:23;6.50;;;5.15;;
14272;SDS011;7220;49.450;11.052;2023-04-25T05:56:24;5.55;;;5.05;;
14272;SDS011;7220;49.450;11.052;2023-04-25T06:00:25;6.95;;;6.10;;
14272;SDS011;7220;49.450;11.052;2023-04-25T06:04:26;7.03;;;5.22;;
14272;SDS011;7220;49.450;11.052;2023-04-25T06:08:26;6.10;;;5.50;;
14272;SDS011;7220;49.450;11.052;2023-04-25T06:12:26;7.50;;;5.73;;
14272;SDS011;7220;49.450;11.052;2023-04-25T06:16:27;6.67;;;6.03;;
14272;SDS011;7220;49.450;11.052;2023-04-25T06:20:27;7.55;;;6.78;;
14272;SDS011;7220;49.450;11.052;2023-04-25T06:24:27;7.63;;;6.90;;
14272;SDS011;7220;49.450;11.052;2023-04-25T06:28:28;8.23;;;6.80;;
14272;SDS011;7220;49.450;11.052;2023-04-25T06:32:28;6.53;;;5.82;;
14272;SDS011;7220;49.450;11.052;2023-04-25T06:36:29;8.30;;;7.13;;
14272;SDS011;7220;49.450;11.052;2023-04-25T06:40:30;7.90;;;7.03;;
14272;SDS011;7220;49.450;11.052;2023-04-25T06:44:30;8.32;;;7.35;;
14272;SDS011;7220;49.450;11.052;2023-04-25T06:48:31;8.85;;;7.57;;
14272;SDS011;7220;49.450;11.052;2023-04-25T06:52:31;10.02;;;8.40;;
14272;SDS011;7220;49.450;11.052;2023-04-25T06:56:32;8.55;;;7.65;;
14272;SDS011;7220;49.450;11.052;2023-04-25T07:00:32;8.38;;;7.55;;
14272;SDS011;7220;49.450;11.052;2023-04-25T07:04:33;10.32;;;8.02;;
14272;SDS011;7220;49.450;11.052;2023-04-25T07:08:33;7.93;;;6.78;;
14272;SDS011;7220;49.450;11.052;2023-04-25T07:12:34;8.07;;;7.32;;
14272;SDS011;7220;49.450;11.052;2023-04-25T07:16:34;8.63;;;7.72;;
14272;SDS011;7220;49.450;11.052;2023-04-25T07:20:34;7.53;;;6.38;;
14272;SDS011;7220;49.450;11.052;2023-04-25T07:24:35;6.82;;;6.05;;
14272;SDS011;7220;49.450;11.052;2023-04-25T07:28:35;6.55;;;5.47;;
14272;SDS011;7220;49.450;11.052;2023-04-25T07:32:36;5.72;;;4.97;;
14272;SDS011;7220;49.450;11.052;2023-04-25T07:36:36;6.65;;;4.93;;
14272;SDS011;7220;49.450;11.052;2023-04-25T07:40:36;4.88;;;4.35;;
14272;SDS011;7220;49.450;11.052;2023-04-25T07:44:37;5.00;;;4.50;;
14272;SDS011;7220;49.450;11.052;2023-04-25T07:48:40;6.13;;;5.18;;
14272;SDS011;7220;49.450;11.052;2023-04-25T07:52:41;5.55;;;4.95;;
14272;SDS011;7220;49.450;11.052;2023-04-25T07:56:41;5.40;;;4.55;;
14272;SDS011;7220;49.450;11.052;2023-04-25T08:00:41;6.50;;;5.35;;
14272;SDS011;7220;49.450;11.052;2023-04-25T08:04:42;6.15;;;4.05;;
14272;SDS011;7220;49.450;11.052;2023-04-25T08:08:42;3.78;;;3.30;;
14272;SDS011;7220;49.450;11.052;2023-04-25T08:12:42;5.25;;;4.18;;
14272;SDS011;7220;49.450;11.052;2023-04-25T08:16:43;9.45;;;4.93;;
14272;SDS011;7220;49.450;11.052;2023-04-25T08:20:43;13.35;;;5.30;;
14272;SDS011;7220;49.450;11.052;2023-04-25T08:24:43;7.10;;;4.47;;
14272;SDS011;7220;49.450;11.052;2023-04-25T08:28:44;6.35;;;5.75;;
14272;SDS011;7220;49.450;11.052;2023-04-25T08:32:44;5.50;;;4.40;;
14272;SDS011;7220;49.450;11.052;2023-04-25T08:36:44;4.32;;;3.88;;
14272;SDS011;7220;49.450;11.052;2023-04-25T08:40:45;4.70;;;4.00;;
14272;SDS011;7220;49.450;11.052;2023-04-25T08:44:50;4.82;;;3.85;;
14272;SDS011;7220;49.450;11.052;2023-04-25T08:48:53;7.90;;;4.32;;
14272;SDS011;7220;49.450;11.052;2023-04-25T08:52:57;5.07;;;4.50;;
14272;SDS011;7220;49.450;11.052;2023-04-25T08:57:03;5.63;;;4.55;;
14272;SDS011;7220;49.450;11.052;2023-04-25T09:01:05;7.45;;;5.00;;
14272;SDS011;7220;49.450;11.052;2023-04-25T09:05:06;6.45;;;5.18;;
14272;SDS011;7220;49.450;11.052;2023-04-25T09:09:07;6.97;;;5.15;;
14272;SDS011;7220;49.450;11.052;2023-04-25T09:13:11;8.23;;;5.82;;
14272;SDS011;7220;49.450;11.052;2023-04-25T09:17:14;5.97;;;5.40;;
14272;SDS011;7220;49.450;11.052;2023-04-25T09:21:15;10.70;;;6.55;;
14272;SDS011;7220;49.450;11.052;2023-04-25T09:25:15;6.43;;;5.72;;
14272;SDS011;7220;49.450;11.052;2023-04-25T09:29:16;7.90;;;6.07;;
14272;SDS011;7220;49.450;11.052;2023-04-25T09:33:17;6.13;;;5.50;;
14272;SDS011;7220;49.450;11.052;2023-04-25T09:37:27;6.93;;;5.95;;
14272;SDS011;7220;49.450;11.052;2023-04-25T09:41:29;7.13;;;5.43;;
14272;SDS011;7220;49.450;11.052;2023-04-25T09:45:29;7.55;;;5.40;;
14272;SDS011;7220;49.450;11.052;2023-04-25T09:49:31;9.63;;;7.25;;
14272;SDS011;7220;49.450;11.052;2023-04-25T09:53:32;6.30;;;5.60;;
14272;SDS011;7220;49.450;11.052;2023-04-25T09:57:33;6.72;;;5.55;;
14272;SDS011;7220;49.450;11.052;2023-04-25T10:01:36;6.07;;;5.30;;
14272;SDS011;7220;49.450;11.052;2023-04-25T10:05:40;7.07;;;5.30;;
14272;SDS011;7220;49.450;11.052;2023-04-25T10:09:41;6.25;;;5.63;;
14272;SDS011;7220;49.450;11.052;2023-04-25T10:13:43;5.95;;;5.35;;
14272;SDS011;7220;49.450;11.052;2023-04-25T10:17:44;6.57;;;5.55;;
14272;SDS011;7220;49.450;11.052;2023-04-25T10:21:51;6.68;;;5.57;;
14272;SDS011;7220;49.450;11.052;2023-04-25T10:25:54;9.07;;;6.10;;
14272;SDS011;7220;49.450;11.052;2023-04-25T10:30:01;5.85;;;5.25;;
14272;SDS011;7220;49.450;11.052;2023-04-25T10:34:04;6.10;;;5.45;;
14272;SDS011;7220;49.450;11.052;2023-04-25T10:38:08;4.95;;;4.20;;
14272;SDS011;7220;49.450;11.052;2023-04-25T10:42:10;3.80;;;2.95;;
14272;SDS011;7220;49.450;11.052;2023-04-25T10:46:15;7.30;;;3.17;;
14272;SDS011;7220;49.450;11.052;2023-04-25T10:50:21;4.78;;;3.67;;
14272;SDS011;7220;49.450;11.052;2023-04-25T10:54:22;4.40;;;3.03;;
14272;SDS011;7220;49.450;11.052;2023-04-25T10:58:25;4.05;;;2.60;;
14272;SDS011;7220;49.450;11.052;2023-04-25T11:02:27;3.13;;;2.60;;
14272;SDS011;7220;49.450;11.052;2023-04-25T11:10:54;4.15;;;2.60;;
14272;SDS011;7220;49.450;11.052;2023-04-25T11:15:00;2.85;;;2.22;;
14272;SDS011;7220;49.450;11.052;2023-04-25T11:19:02;3.30;;;2.25;;
14272;SDS011;7220;49.450;11.052;2023-04-25T11:23:03;4.03;;;2.42;;
14272;SDS011;7220;49.450;11.052;2023-04-25T11:27:04;2.85;;;2.33;;
14272;SDS011;7220;49.450;11.052;2023-04-25T11:31:08;2.20;;;2.00;;
14272;SDS011;7220;49.450;11.052;2023-04-25T11:35:10;1.80;;;1.70;;
14272;SDS011;7220;49.450;11.052;2023-04-25T11:39:10;8.27;;;2.33;;
14272;SDS011;7220;49.450;11.052;2023-04-25T11:43:10;3.05;;;1.98;;
14272;SDS011;7220;49.450;11.052;2023-04-25T11:47:11;3.88;;;1.95;;
14272;SDS011;7220;49.450;11.052;2023-04-25T11:51:11;2.17;;;1.75;;
14272;SDS011;7220;49.450;11.052;2023-04-25T11:55:16;2.22;;;2.03;;
14272;SDS011;7220;49.450;11.052;2023-04-25T11:59:17;2.25;;;1.52;;
14272;SDS011;7220;49.450;11.052;2023-04-25T12:03:24;2.38;;;1.70;;
14272;SDS011;7220;49.450;11.052;2023-04-25T12:07:30;1.60;;;1.50;;
14272;SDS011;7220;49.450;11.052;2023-04-25T12:11:30;1.92;;;1.50;;
14272;SDS011;7220;49.450;11.052;2023-04-25T12:15:34;1.42;;;1.33;;
14272;SDS011;7220;49.450;11.052;2023-04-25T12:19:35;1.85;;;1.40;;
14272;SDS011;7220;49.450;11.052;2023-04-25T12:23:39;2.13;;;1.83;;
14272;SDS011;7220;49.450;11.052;2023-04-25T12:27:41;2.83;;;1.83;;
14272;SDS011;7220;49.450;11.052;2023-04-25T12:31:42;2.58;;;1.73;;
14272;SDS011;7220;49.450;11.052;2023-04-25T12:35:42;2.10;;;1.77;;
14272;SDS011;7220;49.450;11.052;2023-04-25T12:39:42;2.17;;;1.77;;
14272;SDS011;7220;49.450;11.052;2023-04-25T12:43:42;1.92;;;1.75;;
14272;SDS011;7220;49.450;11.052;2023-04-25T12:47:43;4.03;;;2.00;;
14272;SDS011;7220;49.450;11.052;2023-04-25T12:51:43;2.30;;;1.90;;
14272;SDS011;7220;49.450;11.052;2023-04-25T12:55:44;2.13;;;1.93;;
14272;SDS011;7220;49.450;11.052;2023-04-25T12:59:48;2.13;;;1.80;;
14272;SDS011;7220;49.450;11.052;2023-04-25T13:03:48;2.90;;;2.22;;
14272;SDS011;7220;49.450;11.052;2023-04-25T13:07:48;2.28;;;2.08;;
14272;SDS011;7220;49.450;11.052;2023-04-25T13:11:49;4.30;;;2.00;;
14272;SDS011;7220;49.450;11.052;2023-04-25T13:15:49;5.20;;;2.47;;
14272;SDS011;7220;49.450;11.052;2023-04-25T13:19:49;4.45;;;2.60;;
14272;SDS011;7220;49.450;11.052;2023-04-25T13:23:50;2.17;;;1.98;;
14272;SDS011;7220;49.450;11.052;2023-04-25T13:27:50;2.95;;;2.30;;
14272;SDS011;7220;49.450;11.052;2023-04-25T13:31:50;3.65;;;2.20;;
14272;SDS011;7220;49.450;11.052;2023-04-25T13:35:51;3.33;;;2.40;;
14272;SDS011;7220;49.450;11.052;2023-04-25T13:39:56;3.25;;;2.35;;
14272;SDS011;7220;49.450;11.052;2023-04-25T13:43:56;2.47;;;2.28;;
14272;SDS011;7220;49.450;11.052;2023-04-25T13:47:57;3.10;;;2.47;;
14272;SDS011;7220;49.450;11.052;2023-04-25T13:51:57;2.72;;;2.08;;
14272;SDS011;7220;49.450;11.052;2023-04-25T13:55:58;2.80;;;2.60;;
14272;SDS011;7220;49.450;11.052;2023-04-25T13:59:58;4.00;;;2.63;;
14272;SDS011;7220;49.450;11.052;2023-04-25T14:03:59;2.80;;;2.28;;
14272;SDS011;7220;49.450;11.052;2023-04-25T14:07:59;2.85;;;2.45;;
14272;SDS011;7220;49.450;11.052;2023-04-25T14:12:00;3.55;;;2.42;;
14272;SDS011;7220;49.450;11.052;2023-04-25T14:16:02;3.67;;;3.05;;
14272;SDS011;7220;49.450;11.052;2023-04-25T14:20:02;3.88;;;2.92;;
14272;SDS011;7220;49.450;11.052;2023-04-25T14:24:05;3.00;;;2.72;;
14272;SDS011;7220;49.450;11.052;2023-04-25T14:28:06;3.47;;;2.55;;
14272;SDS011;7220;49.450;11.052;2023-04-25T14:32:06;3.17;;;2.70;;
14272;SDS011;7220;49.450;11.052;2023-04-25T14:36:06;3.10;;;2.58;;
14272;SDS011;7220;49.450;11.052;2023-04-25T14:40:07;4.28;;;3.60;;
14272;SDS011;7220;49.450;11.052;2023-04-25T14:44:12;3.90;;;3.53;;
14272;SDS011;7220;49.450;11.052;2023-04-25T14:48:13;4.57;;;3.55;;
14272;SDS011;7220;49.450;11.052;2023-04-25T14:52:13;5.45;;;3.38;;
14272;SDS011;7220;49.450;11.052;2023-04-25T14:56:13;5.13;;;3.23;;
14272;SDS011;7220;49.450;11.052;2023-04-25T15:00:14;3.70;;;3.17;;
14272;SDS011;7220;49.450;11.052;2023-04-25T15:04:16;3.78;;;3.10;;
14272;SDS011;7220;49.450;11.052;2023-04-25T15:08:17;4.70;;;3.35;;
14272;SDS011;7220;49.450;11.052;2023-04-25T15:12:18;5.00;;;3.40;;
14272;SDS011;7220;49.450;11.052;2023-04-25T15:16:18;3.73;;;3.43;;
14272;SDS011;7220;49.450;11.052;2023-04-25T15:20:18;4.32;;;3.17;;
14272;SDS011;7220;49.450;11.052;2023-04-25T15:24:19;4.45;;;3.63;;
14272;SDS011;7220;49.450;11.052;2023-04-25T15:28:19;3.50;;;3.20;;
14272;SDS011;7220;49.450;11.052;2023-04-25T15:32:21;6.28;;;3.67;;
14272;SDS011;7220;49.450;11.052;2023-04-25T15:36:22;3.63;;;3.28;;
14272;SDS011;7220;49.450;11.052;2023-04-25T15:40:22;5.87;;;3.70;;
14272;SDS011;7220;49.450;11.052;2023-04-25T15:44:23;4.28;;;3.38;;
14272;SDS011;7220;49.450;11.052;2023-04-25T15:48:23;3.95;;;3.20;;
14272;SDS011;7220;49.450;11.052;2023-04-25T15:52:24;5.60;;;3.53;;
14272;SDS011;7220;49.450;11.052;2023-04-25T15:56:24;5.45;;;3.60;;
14272;SDS011;7220;49.450;11.052;2023-04-25T16:00:25;5.57;;;3.30;;
14272;SDS011;7220;49.450;11.052;2023-04-25T16:04:25;3.55;;;3.08;;
14272;SDS011;7220;49.450;11.052;2023-04-25T16:08:29;4.57;;;3.30;;
14272;SDS011;7220;49.450;11.052;2023-04-25T16:12:33;3.95;;;2.92;;
14272;SDS011;7220;49.450;11.052;2023-04-25T16:16:33;3.15;;;2.75;;
14272;SDS011;7220;49.450;11.052;2023-04-25T16:20:33;4.00;;;3.33;;
14272;SDS011;7220;49.450;11.052;2023-04-25T16:24:34;5.20;;;3.22;;
14272;SDS011;7220;49.450;11.052;2023-04-25T16:28:34;3.83;;;2.92;;
14272;SDS011;7220;49.450;11.052;2023-04-25T16:32:35;4.10;;;2.95;;
14272;SDS011;7220;49.450;11.052;2023-04-25T16:36:36;3.28;;;2.88;;
14272;SDS011;7220;49.450;11.052;2023-04-25T16:40:37;4.00;;;2.70;;
14272;SDS011;7220;49.450;11.052;2023-04-25T16:44:37;5.22;;;3.47;;
14272;SDS011;7220;49.450;11.052;2023-04-25T16:48:37;4.43;;;2.88;;
14272;SDS011;7220;49.450;11.052;2023-04-25T16:52:38;3.58;;;2.90;;
14272;SDS011;7220;49.450;11.052;2023-04-25T16:56:38;4.95;;;3.20;;
14272;SDS011;7220;49.450;11.052;2023-04-25T17:00:39;6.13;;;3.00;;
14272;SDS011;7220;49.450;11.052;2023-04-25T17:04:40;3.33;;;2.78;;
14272;SDS011;7220;49.450;11.052;2023-04-25T17:08:40;2.80;;;2.50;;
14272;SDS011;7220;49.450;11.052;2023-04-25T17:12:41;5.43;;;2.88;;
14272;SDS011;7220;49.450;11.052;2023-04-25T17:16:42;3.30;;;2.67;;
14272;SDS011;7220;49.450;11.052;2023-04-25T17:20:42;5.22;;;2.45;;
14272;SDS011;7220;49.450;11.052;2023-04-25T17:24:42;3.83;;;2.30;;
14272;SDS011;7220;49.450;11.052;2023-04-25T17:28:43;3.95;;;2.42;;
14272;SDS011;7220;49.450;11.052;2023-04-25T17:32:47;4.55;;;2.83;;
14272;SDS011;7220;49.450;11.052;2023-04-25T17:36:48;5.47;;;2.85;;
14272;SDS011;7220;49.450;11.052;2023-04-25T17:40:48;4.43;;;2.77;;
14272;SDS011;7220;49.450;11.052;2023-04-25T17:44:53;4.55;;;2.80;;
14272;SDS011;7220;49.450;11.052;2023-04-25T17:48:55;6.40;;;2.85;;
14272;SDS011;7220;49.450;11.052;2023-04-25T17:52:57;4.50;;;2.72;;
14272;SDS011;7220;49.450;11.052;2023-04-25T17:56:58;4.80;;;2.55;;
14272;SDS011;7220;49.450;11.052;2023-04-25T18:00:59;5.10;;;3.00;;
14272;SDS011;7220;49.450;11.052;2023-04-25T18:04:59;5.50;;;3.28;;
14272;SDS011;7220;49.450;11.052;2023-04-25T18:09:00;6.65;;;3.33;;
14272;SDS011;7220;49.450;11.052;2023-04-25T18:13:01;6.20;;;2.90;;
14272;SDS011;7220;49.450;11.052;2023-04-25T18:17:02;3.75;;;2.80;;
14272;SDS011;7220;49.450;11.052;2023-04-25T18:21:03;4.43;;;2.83;;
14272;SDS011;7220;49.450;11.052;2023-04-25T18:25:06;4.38;;;2.80;;
14272;SDS011;7220;49.450;11.052;2023-04-25T18:29:08;4.85;;;2.83;;
14272;SDS011;7220;49.450;11.052;2023-04-25T18:33:10;5.53;;;2.92;;
14272;SDS011;7220;49.450;11.052;2023-04-25T18:37:11;6.10;;;3.20;;
14272;SDS011;7220;49.450;11.052;2023-04-25T18:41:13;3.63;;;3.17;;
14272;SDS011;7220;49.450;11.052;2023-04-25T18:45:14;3.90;;;3.22;;
14272;SDS011;7220;49.450;11.052;2023-04-25T18:49:15;7.18;;;3.30;;
14272;SDS011;7220;49.450;11.052;2023-04-25T18:53:15;4.93;;;3.00;;
14272;SDS011;7220;49.450;11.052;2023-04-25T18:57:15;3.83;;;3.00;;
14272;SDS011;7220;49.450;11.052;2023-04-25T19:01:16;4.97;;;3.17;;
14272;SDS011;7220;49.450;11.052;2023-04-25T19:05:17;5.40;;;3.45;;
14272;SDS011;7220;49.450;11.052;2023-04-25T19:09:17;3.75;;;3.22;;
14272;SDS011;7220;49.450;11.052;2023-04-25T19:13:18;5.05;;;3.53;;
14272;SDS011;7220;49.450;11.052;2023-04-25T19:17:18;4.82;;;3.72;;
14272;SDS011;7220;49.450;11.052;2023-04-25T19:21:19;4.95;;;3.63;;
14272;SDS011;7220;49.450;11.052;2023-04-25T19:25:19;4.93;;;3.25;;
14272;SDS011;7220;49.450;11.052;2023-04-25T19:29:20;5.00;;;3.65;;
14272;SDS011;7220;49.450;11.052;2023-04-25T19:33:20;3.50;;;2.95;;
14272;SDS011;7220;49.450;11.052;2023-04-25T19:37:20;4.47;;;3.22;;
14272;SDS011;7220;49.450;11.052;2023-04-25T19:41:21;4.50;;;3.10;;
14272;SDS011;7220;49.450;11.052;2023-04-25T19:45:21;4.75;;;3.42;;
14272;SDS011;7220;49.450;11.052;2023-04-25T19:49:22;3.42;;;2.83;;
14272;SDS011;7220;49.450;11.052;2023-04-25T19:53:22;8.00;;;4.10;;
14272;SDS011;7220;49.450;11.052;2023-04-25T19:57:23;8.88;;;4.13;;
14272;SDS011;7220;49.450;11.052;2023-04-25T20:01:25;5.57;;;3.45;;
14272;SDS011;7220;49.450;11.052;2023-04-25T20:05:25;5.38;;;3.40;;
14272;SDS011;7220;49.450;11.052;2023-04-25T20:09:26;4.80;;;3.50;;
14272;SDS011;7220;49.450;11.052;2023-04-25T20:13:26;6.27;;;3.50;;
14272;SDS011;7220;49.450;11.052;2023-04-25T20:17:27;5.60;;;3.25;;
14272;SDS011;7220;49.450;11.052;2023-04-25T20:21:27;7.88;;;3.72;;
14272;SDS011;7220;49.450;11.052;2023-04-25T20:25:28;5.40;;;3.33;;
14272;SDS011;7220;49.450;11.052;2023-04-25T20:29:28;6.80;;;3.50;;
14272;SDS011;7220;49.450;11.052;2023-04-25T20:33:29;5.18;;;3.22;;
14272;SDS011;7220;49.450;11.052;2023-04-25T20:37:29;5.85;;;3.60;;
14272;SDS011;7220;49.450;11.052;2023-04-25T20:41:32;4.55;;;3.45;;
14272;SDS011;7220;49.450;11.052;2023-04-25T20:45:33;8.05;;;4.00;;
14272;SDS011;7220;49.450;11.052;2023-04-25T20:49:33;4.65;;;3.60;;
14272;SDS011;7220;49.450;11.052;2023-04-25T20:53:35;5.07;;;3.67;;
14272;SDS011;7220;49.450;11.052;2023-04-25T20:57:35;6.70;;;3.33;;
14272;SDS011;7220;49.450;11.052;2023-04-25T21:01:36;5.05;;;3.40;;
14272;SDS011;7220;49.450;11.052;2023-04-25T21:05:36;5.45;;;3.60;;
14272;SDS011;7220;49.450;11.052;2023-04-25T21:09:37;5.60;;;3.42;;
14272;SDS011;7220;49.450;11.052;2023-04-25T21:13:38;5.22;;;3.42;;
14272;SDS011;7220;49.450;11.052;2023-04-25T21:17:39;5.25;;;3.75;;
14272;SDS011;7220;49.450;11.052;2023-04-25T21:21:40;6.45;;;3.65;;
14272;SDS011;7220;49.450;11.052;2023-04-25T21:25:41;4.85;;;3.40;;
14272;SDS011;7220;49.450;11.052;2023-04-25T21:29:42;6.47;;;3.00;;
14272;SDS011;7220;49.450;11.052;2023-04-25T21:33:43;4.53;;;3.38;;
14272;SDS011;7220;49.450;11.052;2023-04-25T21:37:43;4.65;;;3.38;;
14272;SDS011;7220;49.450;11.052;2023-04-25T21:41:44;4.07;;;3.28;;
14272;SDS011;7220;49.450;11.052;2023-04-25T21:45:45;6.45;;;3.70;;
14272;SDS011;7220;49.450;11.052;2023-04-25T21:49:45;4.18;;;3.13;;
14272;SDS011;7220;49.450;11.052;2023-04-25T21:53:45;9.60;;;5.22;;
14272;SDS011;7220;49.450;11.052;2023-04-25T21:57:46;5.13;;;3.53;;
14272;SDS011;7220;49.450;11.052;2023-04-25T22:01:46;7.47;;;3.92;;
14272;SDS011;7220;49.450;11.052;2023-04-25T22:05:47;5.25;;;4.07;;
14272;SDS011;7220;49.450;11.052;2023-04-25T22:09:47;7.88;;;4.15;;
14272;SDS011;7220;49.450;11.052;2023-04-25T22:13:48;4.57;;;3.53;;
14272;SDS011;7220;49.450;11.052;2023-04-25T22:17:51;6.18;;;4.35;;
14272;SDS011;7220;49.450;11.052;2023-04-25T22:21:55;5.40;;;3.88;;
14272;SDS011;7220;49.450;11.052;2023-04-25T22:25:55;5.13;;;3.40;;
14272;SDS011;7220;49.450;11.052;2023-04-25T22:29:56;7.93;;;3.65;;
14272;SDS011;7220;49.450;11.052;2023-04-25T22:33:56;6.85;;;4.00;;
14272;SDS011;7220;49.450;11.052;2023-04-25T22:37:56;6.38;;;3.67;;
14272;SDS011;7220;49.450;11.052;2023-04-25T22:41:57;5.50;;;3.83;;
14272;SDS011;7220;49.450;11.052;2023-04-25T22:45:57;5.07;;;3.40;;
14272;SDS011;7220;49.450;11.052;2023-04-25T22:49:58;5.80;;;3.88;;
14272;SDS011;7220;49.450;11.052;2023-04-25T22:54:00;6.90;;;4.03;;
14272;SDS011;7220;49.450;11.052;2023-04-25T22:58:00;4.45;;;4.00;;
14272;SDS011;7220;49.450;11.052;2023-04-25T23:02:01;6.57;;;4.22;;
14272;SDS011;7220;49.450;11.052;2023-04-25T23:06:02;7.60;;;4.40;;
14272;SDS011;7220;49.450;11.052;2023-04-25T23:10:03;5.63;;;4.45;;
14272;SDS011;7220;49.450;11.052;2023-04-25T23:14:04;8.52;;;4.20;;
14272;SDS011;7220;49.450;11.052;2023-04-25T23:18:04;4.60;;;3.83;;
14272;SDS011;7220;49.450;11.052;2023-04-25T23:22:04;10.38;;;4.30;;
14272;SDS011;7220;49.450;11.052;2023-04-25T23:26:08;6.90;;;4.50;;
14272;SDS011;7220;49.450;11.052;2023-04-25T23:30:10;5.97;;;4.05;;
14272;SDS011;7220;49.450;11.052;2023-04-25T23:34:11;8.07;;;4.65;;
14272;SDS011;7220;49.450;11.052;2023-04-25T23:38:11;8.80;;;4.85;;
14272;SDS011;7220;49.450;11.052;2023-04-25T23:42:12;6.13;;;4.22;;
14272;SDS011;7220;49.450;11.052;2023-04-25T23:46:12;8.77;;;4.40;;
14272;SDS011;7220;49.450;11.052;2023-04-25T23:50:13;10.55;;;4.63;;
14272;SDS011;7220;49.450;11.052;2023-04-25T23:54:14;9.80;;;4.85;;
14272;SDS011;7220;49.450;11.052;2023-04-25T23:58:14;6.97;;;4.57;;
